Time;durP1;ratioP1;P1;durP2;ratioP2;P2;SDS_P1;SDS_P2;PMS_P1;PMS_P2;Temp;Humidity;BMP_temperature;BMP_pressure;BME280_temperature;BME280_humidity;BME280_pressure;Samples;Min_cycle;Max_cycle;Signal;HPM_P1;HPM_P2
2023/05/16 00:01:19;;;;;;;6.22;2.13;;;8.20;99.90;;;7.45;100.00;101943.72;4136354;28;20027;-72
2023/05/16 00:03:20;;;;;;;4.55;1.80;;;8.20;99.90;;;7.45;100.00;101951.59;4121278;28;20042;-72
2023/05/16 00:05:21;;;;;;;7.50;2.30;;;8.10;99.90;;;7.36;100.00;101946.97;4121325;28;20015;-72
2023/05/16 00:07:22;;;;;;;7.65;1.83;;;8.10;99.90;;;7.36;100.00;101946.97;4120151;28;20031;-72
2023/05/16 00:09:23;;;;;;;8.70;2.25;;;8.10;99.90;;;7.30;100.00;101936.91;4121361;28;20034;-72
2023/05/16 00:11:23;;;;;;;7.82;1.80;;;8.00;99.90;;;7.31;100.00;101946.47;4135987;28;20034;-72
2023/05/16 00:13:25;;;;;;;5.85;2.20;;;8.00;99.90;;;7.27;100.00;101952.84;4121131;28;20034;-72
2023/05/16 00:15:26;;;;;;;7.80;2.10;;;7.90;99.90;;;7.27;100.00;101942.38;4136116;28;20081;-72
2023/05/16 00:17:27;;;;;;;4.30;2.10;;;8.00;99.90;;;7.25;100.00;101949.50;4121060;28;20041;-72
2023/05/16 00:19:28;;;;;;;6.88;2.60;;;8.00;99.90;;;7.25;100.00;101946.88;4121045;28;20025;-72
2023/05/16 00:21:30;;;;;;;6.28;2.05;;;8.00;99.90;;;7.21;100.00;101948.88;4121160;28;20058;-72
2023/05/16 00:23:31;;;;;;;3.50;1.63;;;8.00;99.90;;;7.23;100.00;101952.22;4135954;28;20058;-72
2023/05/16 00:25:32;;;;;;;9.30;2.17;;;7.90;99.90;;;7.18;100.00;101949.09;4135818;28;20421;-72
2023/05/16 00:27:34;;;;;;;6.32;1.95;;;7.90;99.90;;;7.16;100.00;101945.75;4119823;28;20030;-72
2023/05/16 00:29:35;;;;;;;7.32;1.90;;;7.90;99.90;;;7.14;100.00;101949.38;4135290;28;20417;-72
2023/05/16 00:31:36;;;;;;;5.72;2.28;;;7.90;99.90;;;7.11;100.00;101944.34;4120148;28;20042;-72
2023/05/16 00:33:37;;;;;;;4.50;2.00;;;7.80;99.90;;;7.05;100.00;101942.13;4119720;28;20031;-72
2023/05/16 00:35:38;;;;;;;5.35;1.70;;;7.80;99.90;;;7.03;100.00;101936.16;4120797;28;20050;-72
2023/05/16 00:37:39;;;;;;;10.43;2.03;;;7.80;99.90;;;7.00;100.00;101933.75;4121047;28;20035;-72
2023/05/16 00:39:40;;;;;;;5.85;2.28;;;7.80;99.90;;;7.02;100.00;101947.59;4135976;28;20054;-72
2023/05/16 00:41:41;;;;;;;4.35;1.70;;;7.70;99.90;;;6.96;100.00;101942.78;4135586;28;20026;-72
2023/05/16 00:43:42;;;;;;;4.88;1.80;;;7.70;99.90;;;6.95;100.00;101944.56;4119497;28;20393;-72
2023/05/16 00:45:43;;;;;;;5.03;1.85;;;7.70;99.90;;;6.98;100.00;101954.00;4120693;28;20053;-72
2023/05/16 00:47:44;;;;;;;6.70;2.30;;;7.70;99.90;;;6.99;100.00;101953.06;4120933;28;20042;-73
2023/05/16 00:49:45;;;;;;;7.95;2.78;;;7.70;99.90;;;6.98;100.00;101954.00;4135604;28;20521;-72
2023/05/16 00:51:46;;;;;;;8.98;2.33;;;7.70;99.90;;;6.96;100.00;101948.84;4120644;28;20034;-72
2023/05/16 00:53:47;;;;;;;4.18;2.05;;;7.70;99.90;;;6.96;100.00;101948.84;4135389;28;20525;-72
2023/05/16 00:55:48;;;;;;;6.03;2.47;;;7.60;99.90;;;6.92;100.00;101946.53;4135502;28;20438;-72
2023/05/16 00:57:49;;;;;;;5.85;2.33;;;7.60;99.90;;;6.91;100.00;101942.22;4119272;28;20031;-72
2023/05/16 00:59:51;;;;;;;7.95;2.08;;;7.60;99.90;;;6.93;100.00;101953.47;4135469;28;20027;-72
2023/05/16 01:01:52;;;;;;;8.07;2.55;;;7.60;99.90;;;6.89;100.00;101950.22;4120102;28;20033;-72
2023/05/16 01:03:54;;;;;;;5.18;2.08;;;7.60;99.90;;;6.90;100.00;101951.06;4135452;28;20058;-72
2023/05/16 01:05:56;;;;;;;5.05;2.10;;;7.60;99.90;;;6.82;100.00;101929.72;4135139;28;20026;-72
2023/05/16 01:07:56;;;;;;;6.05;2.75;;;7.60;99.90;;;6.81;100.00;101935.94;4119192;28;20438;-73
2023/05/16 01:09:58;;;;;;;7.00;2.17;;;7.50;99.90;;;6.77;100.00;101934.47;4118992;28;20030;-72
2023/05/16 01:12:18;;;;;;;3.60;1.60;;;7.50;99.90;;;6.79;100.00;101943.91;4135493;28;20030;-72
2023/05/16 01:14:45;;;;;;;6.82;2.00;;;7.50;99.90;;;6.74;100.00;101947.78;4134884;28;20117;-72
2023/05/16 01:16:55;;;;;;;6.07;2.22;;;7.50;99.90;;;6.67;100.00;101939.47;4118872;28;20043;-72
2023/05/16 01:19:15;;;;;;;6.53;1.92;;;7.40;99.90;;;6.65;100.00;101947.44;4135234;28;20033;-72
2023/05/16 01:21:30;;;;;;;4.60;2.08;;;7.40;99.90;;;6.57;100.00;101939.22;4134960;28;20053;-72
2023/05/16 01:24:23;;;;;;;4.40;2.00;;;7.30;99.90;;;6.55;100.00;101942.91;4133905;28;20022;-72
2023/05/16 01:26:27;;;;;;;5.80;1.88;;;7.30;99.90;;;6.53;100.00;101955.28;4119848;28;20471;-73
2023/05/16 01:28:28;;;;;;;3.92;2.20;;;7.30;99.90;;;6.45;100.00;101940.03;4120013;28;20050;-72
2023/05/16 01:30:37;;;;;;;4.43;2.15;;;7.20;99.90;;;6.50;100.00;101953.69;4135007;28;20438;-72
2023/05/16 01:32:38;;;;;;;5.25;1.95;;;7.20;99.90;;;6.43;100.00;101936.69;4134837;28;20030;-73
2023/05/16 01:34:40;;;;;;;4.50;2.03;;;7.20;99.90;;;6.41;100.00;101938.56;4134845;28;20033;-72
2023/05/16 01:37:11;;;;;;;6.18;2.33;;;7.20;99.90;;;6.41;100.00;101950.84;4118681;28;20023;-72
2023/05/16 01:39:40;;;;;;;8.77;2.30;;;7.10;99.90;;;6.38;100.00;101951.88;4134748;28;20140;-72
2023/05/16 01:42:03;;;;;;;5.82;2.28;;;7.10;99.90;;;6.34;100.00;101944.28;4118641;28;20034;-72
2023/05/16 01:44:16;;;;;;;10.25;2.40;;;7.10;99.90;;;6.33;100.00;101946.06;4119319;28;20213;-73
2023/05/16 01:46:25;;;;;;;5.57;2.47;;;7.10;99.90;;;6.26;100.00;101936.94;4134341;28;20522;-73
2023/05/16 01:48:37;;;;;;;5.10;2.25;;;7.10;99.90;;;6.30;100.00;101948.06;4134713;28;20077;-72
2023/05/16 01:50:48;;;;;;;3.92;1.92;;;7.00;99.90;;;6.28;100.00;101950.78;4134302;28;20057;-72
2023/05/16 01:53:01;;;;;;;6.72;2.33;;;7.00;99.90;;;6.29;100.00;101949.84;4134441;28;20033;-72
2023/05/16 01:55:03;;;;;;;4.72;2.45;;;7.00;99.90;;;6.28;100.00;101953.41;4119575;28;20403;-72
2023/05/16 01:57:07;;;;;;;7.25;2.78;;;7.00;99.90;;;6.24;100.00;101941.47;4118585;28;20126;-73
2023/05/16 01:59:11;;;;;;;5.60;2.47;;;7.00;99.90;;;6.26;100.00;101952.66;4134554;28;20028;-73
2023/05/16 02:01:13;;;;;;;10.15;3.08;;;7.00;99.90;;;6.24;100.00;101954.56;4118684;28;20023;-72
2023/05/16 02:03:13;;;;;;;8.82;3.28;;;7.00;99.90;;;6.24;100.00;101949.31;4134756;28;20105;-73
2023/05/16 02:05:14;;;;;;;7.43;3.40;;;7.00;99.90;;;6.21;100.00;101960.00;4119679;28;20022;-72
2023/05/16 02:07:15;;;;;;;8.15;3.10;;;6.90;99.90;;;6.19;100.00;101945.28;4134837;28;20026;-72
2023/05/16 02:09:16;;;;;;;8.50;2.80;;;6.90;99.90;;;6.18;100.00;101954.09;4118460;28;20069;-72
2023/05/16 02:11:17;;;;;;;9.20;3.67;;;6.90;99.90;;;6.15;100.00;101944.66;4118626;28;20030;-72
2023/05/16 02:13:18;;;;;;;6.60;2.90;;;6.90;99.90;;;6.12;100.00;101942.25;4118172;28;20037;-72
2023/05/16 02:15:20;;;;;;;6.57;2.55;;;6.90;99.90;;;6.12;100.00;101944.88;4119914;28;20091;-72
2023/05/16 02:17:21;;;;;;;9.15;2.97;;;6.90;99.90;;;6.07;100.00;101941.66;4119635;28;20031;-73
2023/05/16 02:19:22;;;;;;;6.13;3.00;;;6.80;99.90;;;6.07;100.00;101939.06;4134838;28;20536;-73
2023/05/16 02:21:23;;;;;;;9.15;3.63;;;6.80;99.90;;;6.08;100.00;101943.38;4119714;28;20026;-73
2023/05/16 02:23:23;;;;;;;7.40;2.72;;;6.80;99.90;;;6.05;100.00;101938.31;4119801;28;20027;-73
2023/05/16 02:25:25;;;;;;;6.90;3.00;;;6.80;99.90;;;6.03;100.00;101946.25;4134905;28;20085;-73
2023/05/16 02:27:25;;;;;;;4.82;2.72;;;6.70;99.90;;;6.00;100.00;101941.22;4118666;28;20066;-72
2023/05/16 02:29:26;;;;;;;7.20;3.33;;;6.70;99.90;;;5.96;100.00;101936.28;4118080;28;20530;-73
2023/05/16 02:31:32;;;;;;;6.15;2.55;;;6.70;99.90;;;5.93;100.00;101937.31;4120026;28;20032;-72
2023/05/16 02:33:33;;;;;;;7.40;3.35;;;6.70;99.90;;;5.94;100.00;101938.97;4134604;28;20585;-72
2023/05/16 02:35:34;;;;;;;6.85;3.10;;;6.70;99.90;;;5.92;100.00;101945.25;4119649;28;20094;-73
2023/05/16 02:37:35;;;;;;;5.55;2.78;;;6.70;99.90;;;5.86;100.00;101943.03;4119530;28;20503;-72
2023/05/16 02:39:36;;;;;;;7.43;2.85;;;6.60;99.90;;;5.87;100.00;101940.34;4134603;28;20022;-72
2023/05/16 02:41:37;;;;;;;7.72;3.00;;;6.60;99.90;;;5.84;100.00;101945.72;4118350;28;20023;-72
2023/05/16 02:43:38;;;;;;;7.72;3.20;;;6.60;99.90;;;5.84;100.00;101940.50;4118235;28;20026;-72
2023/05/16 02:45:39;;;;;;;7.60;3.03;;;6.60;99.90;;;5.84;100.00;101942.25;4119303;28;20046;-72
2023/05/16 02:47:41;;;;;;;4.85;2.60;;;6.60;99.90;;;5.85;100.00;101947.44;4134730;28;20026;-72
2023/05/16 02:49:42;;;;;;;5.28;2.63;;;6.60;99.90;;;5.80;100.00;101944.22;4119748;28;20101;-72
2023/05/16 02:51:43;;;;;;;8.73;3.50;;;6.60;99.90;;;5.76;100.00;101947.16;4134845;28;20478;-72
2023/05/16 02:53:43;;;;;;;9.48;3.13;;;6.60;99.90;;;5.77;100.00;101944.41;4118269;28;20027;-72
2023/05/16 02:55:44;;;;;;;6.57;3.08;;;6.50;99.90;;;5.74;100.00;101949.84;4120511;28;20109;-72
2023/05/16 02:57:45;;;;;;;5.47;2.78;;;6.50;99.90;;;5.73;100.00;101948.19;4137174;28;20026;-72
2023/05/16 02:59:46;;;;;;;3.33;2.38;;;6.50;99.90;;;5.67;100.00;101938.09;4122358;28;20031;-72
2023/05/16 03:01:47;;;;;;;3.00;2.67;;;6.50;99.90;;;5.66;100.00;101946.88;4137111;28;20110;-72
2023/05/16 03:03:47;;;;;;;7.35;2.72;;;6.50;99.90;;;5.62;100.00;101950.59;4122362;28;20479;-72
2023/05/16 03:05:50;;;;;;;5.72;2.88;;;6.40;99.90;;;5.59;100.00;101949.03;4137167;28;20026;-72
2023/05/16 03:07:51;;;;;;;6.85;2.92;;;6.40;99.90;;;5.56;100.00;101946.59;4122222;28;20034;-73
2023/05/16 03:09:51;;;;;;;4.80;3.08;;;6.30;99.90;;;5.49;100.00;101934.00;4122099;28;20034;-72
2023/05/16 03:11:52;;;;;;;8.68;2.85;;;6.30;99.90;;;5.52;100.00;101936.41;4137104;28;20026;-73
2023/05/16 03:13:53;;;;;;;6.03;2.90;;;6.30;99.90;;;5.52;100.00;101939.88;4120825;28;20120;-72
2023/05/16 03:15:54;;;;;;;8.02;2.80;;;6.30;99.90;;;5.48;100.00;101938.38;4137158;28;20030;-72
2023/05/16 03:17:55;;;;;;;5.00;2.85;;;6.30;99.90;;;5.51;100.00;101946.03;4120856;28;20038;-72
2023/05/16 03:19:56;;;;;;;7.93;3.30;;;6.30;99.90;;;5.49;100.00;101937.47;4120930;28;20026;-72
2023/05/16 03:21:57;;;;;;;5.97;3.13;;;6.30;99.90;;;5.41;100.00;101920.50;4125792;28;20023;-72
2023/05/16 03:23:58;;;;;;;6.10;3.05;;;6.30;99.90;;;5.52;100.00;101945.13;4122036;28;20027;-72
2023/05/16 03:25:59;;;;;;;7.85;3.47;;;6.30;99.90;;;5.46;100.00;101932.41;4121854;28;20031;-72
2023/05/16 03:28:01;;;;;;;6.15;2.90;;;6.30;99.90;;;5.50;100.00;101946.13;4136710;28;20086;-72
2023/05/16 03:30:02;;;;;;;7.32;2.90;;;6.30;99.90;;;5.48;100.00;101940.16;4120713;28;20031;-72
2023/05/16 03:32:03;;;;;;;4.30;2.70;;;6.30;99.90;;;5.48;100.00;101941.00;4136812;28;20557;-72
2023/05/16 03:34:04;;;;;;;10.77;3.33;;;6.20;99.90;;;5.44;100.00;101936.88;4136671;28;20030;-72
2023/05/16 03:36:06;;;;;;;5.82;3.53;;;6.20;99.90;;;5.43;100.00;101939.59;4121884;28;20030;-72
2023/05/16 03:38:07;;;;;;;7.53;3.40;;;6.30;99.90;;;5.41;100.00;101936.22;4121713;28;20042;-72
2023/05/16 03:40:08;;;;;;;7.55;3.30;;;6.20;99.90;;;5.42;100.00;101948.38;4136682;28;20029;-72
2023/05/16 03:42:09;;;;;;;7.13;4.10;;;6.20;99.90;;;5.46;100.00;101955.13;4120430;28;20023;-72
2023/05/16 03:44:10;;;;;;;7.15;2.75;;;6.20;99.90;;;5.41;100.00;101947.53;4104025;29;20027;-72
2023/05/16 03:46:12;;;;;;;6.80;3.35;;;6.20;99.90;;;5.44;100.00;101952.56;4120352;28;20043;-72
2023/05/16 03:48:13;;;;;;;7.10;3.10;;;6.20;99.90;;;5.48;100.00;101959.31;4120408;28;20046;-72
2023/05/16 03:50:14;;;;;;;6.25;3.67;;;6.20;99.90;;;5.47;100.00;101951.53;4136744;28;20155;-72
2023/05/16 03:52:15;;;;;;;7.28;3.10;;;6.20;99.90;;;5.45;100.00;101951.66;4136399;28;20125;-72
2023/05/16 03:54:16;;;;;;;7.25;3.38;;;6.20;99.90;;;5.45;100.00;101946.41;4121629;28;20063;-72
2023/05/16 03:56:17;;;;;;;7.88;4.38;;;6.20;99.90;;;5.45;100.00;101958.66;4120145;28;20026;-72
2023/05/16 03:58:18;;;;;;;9.65;4.20;;;6.20;99.90;;;5.44;100.00;101952.56;4136114;28;20037;-72
2023/05/16 04:00:18;;;;;;;5.10;3.30;;;6.20;99.90;;;5.42;100.00;101948.38;4121408;28;20027;-72
2023/05/16 04:02:19;;;;;;;4.75;3.00;;;6.20;99.90;;;5.42;100.00;101951.00;4136053;28;20084;-72
2023/05/16 04:04:20;;;;;;;8.70;3.80;;;6.20;99.90;;;5.39;100.00;101945.94;4120143;28;20458;-72
2023/05/16 04:06:21;;;;;;;9.60;3.42;;;6.20;99.90;;;5.43;100.00;101956.16;4121433;28;20022;-72
2023/05/16 04:08:22;;;;;;;9.68;2.95;;;6.20;99.90;;;5.41;100.00;101952.75;4121288;28;20039;-72
2023/05/16 04:10:23;;;;;;;9.32;3.50;;;6.20;99.90;;;5.43;100.00;101947.44;4121380;28;20031;-72
2023/05/16 04:12:25;;;;;;;5.38;3.20;;;6.20;99.90;;;5.40;100.00;101948.50;4121344;28;20483;-72
2023/05/16 04:14:25;;;;;;;8.88;3.63;;;6.20;99.90;;;5.36;100.00;101949.59;4135840;28;20513;-72
2023/05/16 04:16:26;;;;;;;7.30;3.65;;;6.10;99.90;;;5.29;100.00;101937.81;4136018;28;20038;-72
2023/05/16 04:18:27;;;;;;;8.98;3.55;;;6.10;99.90;;;5.29;100.00;101945.66;4121146;28;20087;-72
2023/05/16 04:20:28;;;;;;;9.20;4.00;;;6.10;99.90;;;5.27;100.00;101942.31;4121124;28;20089;-72
2023/05/16 04:22:29;;;;;;;9.63;4.15;;;6.10;99.90;;;5.22;100.00;101948.75;4121088;28;20147;-72
2023/05/16 04:24:30;;;;;;;7.10;4.75;;;6.00;99.90;;;5.23;100.00;101945.19;4135455;28;20061;-72
2023/05/16 04:26:31;;;;;;;7.38;3.70;;;6.00;99.90;;;5.23;100.00;101946.03;4136028;28;20019;-72
2023/05/16 04:28:32;;;;;;;11.95;3.63;;;6.00;99.90;;;5.26;100.00;101951.06;4135654;28;20038;-72
2023/05/16 04:30:33;;;;;;;8.00;3.50;;;6.00;99.90;;;5.27;100.00;101957.16;4120956;28;20022;-72
2023/05/16 04:32:35;;;;;;;7.45;4.00;;;6.00;99.90;;;5.23;100.00;101950.41;4120426;28;20490;-72
2023/05/16 04:34:36;;;;;;;9.35;3.85;;;6.00;99.90;;;5.28;100.00;101954.47;4119809;28;20038;-72
2023/05/16 04:36:37;;;;;;;9.23;3.83;;;6.00;99.90;;;5.25;100.00;101953.78;4120846;28;20030;-72
2023/05/16 04:38:38;;;;;;;8.50;3.60;;;6.00;99.90;;;5.23;100.00;101966.94;4119688;28;20083;-72
2023/05/16 04:40:40;;;;;;;6.00;3.38;;;6.00;99.90;;;5.22;100.00;101962.66;4119437;28;20086;-72
2023/05/16 04:42:41;;;;;;;8.30;3.45;;;6.00;99.90;;;5.20;100.00;101968.91;4123286;28;20113;-72
2023/05/16 04:44:42;;;;;;;8.30;3.53;;;6.00;99.90;;;5.16;100.00;101960.41;4120699;28;20469;-72
2023/05/16 04:46:43;;;;;;;6.43;2.78;;;6.00;99.90;;;5.21;100.00;101967.97;4135718;28;20034;-72
2023/05/16 04:48:45;;;;;;;6.80;2.85;;;6.00;99.90;;;5.21;100.00;101967.97;4120646;28;20479;-72
2023/05/16 04:50:45;;;;;;;5.10;3.25;;;6.00;99.90;;;5.21;100.00;101966.22;4120862;28;20031;-72
2023/05/16 04:52:46;;;;;;;3.65;2.72;;;6.00;99.90;;;5.21;100.00;101976.69;4120672;28;20553;-72
2023/05/16 04:54:51;;;;;;;4.95;2.90;;;6.00;99.90;;;5.17;100.00;101954.25;4120531;28;20035;-72
2023/05/16 04:56:52;;;;;;;8.80;3.55;;;6.00;99.90;;;5.25;100.00;101962.50;4119242;28;20506;-72
2023/05/16 04:58:53;;;;;;;6.00;3.63;;;6.00;99.90;;;5.33;100.00;101964.63;4135525;28;20026;-72
2023/05/16 05:00:54;;;;;;;11.60;4.30;;;6.00;99.90;;;5.38;100.00;101959.94;4120506;28;20018;-72
2023/05/16 05:02:55;;;;;;;7.15;3.97;;;6.10;99.90;;;5.44;100.00;101964.81;4120507;28;20102;-72
2023/05/16 05:04:56;;;;;;;8.60;3.85;;;6.20;99.90;;;5.48;100.00;101968.94;4120272;28;20027;-72
2023/05/16 05:06:57;;;;;;;9.90;4.13;;;6.20;99.90;;;5.54;100.00;101958.94;4135257;28;20037;-72
2023/05/16 05:08:58;;;;;;;7.55;3.83;;;6.20;99.90;;;5.58;100.00;101962.22;4111211;28;20023;-72
2023/05/16 05:10:58;;;;;;;8.70;4.47;;;6.30;99.90;;;5.63;100.00;101964.53;4119176;28;20031;-72
2023/05/16 05:12:59;;;;;;;12.68;4.63;;;6.40;99.90;;;5.74;100.00;101975.19;4118806;28;20023;-72
2023/05/16 05:15:00;;;;;;;10.60;4.82;;;6.40;99.90;;;5.77;100.00;101973.22;4103199;29;20031;-72
2023/05/16 05:17:01;;;;;;;10.02;4.07;;;6.50;99.90;;;5.83;100.00;101975.44;4120010;28;20033;-72
2023/05/16 05:19:02;;;;;;;9.63;4.10;;;6.50;99.90;;;5.86;100.00;101977.06;4120022;28;20061;-72
2023/05/16 05:21:03;;;;;;;9.80;4.75;;;6.60;99.90;;;5.90;100.00;101970.72;4119229;28;20054;-72
2023/05/16 05:23:04;;;;;;;6.70;4.13;;;6.60;99.90;;;5.99;100.00;101978.84;4119168;28;20031;-72
2023/05/16 05:25:05;;;;;;;10.02;4.10;;;6.70;99.90;;;6.03;100.00;101976.88;4120269;28;20026;-72
2023/05/16 05:27:06;;;;;;;7.50;4.30;;;6.70;99.90;;;6.11;100.00;101985.94;4103053;28;20035;-72
2023/05/16 05:29:07;;;;;;;9.98;4.80;;;6.80;99.90;;;6.16;100.00;101979.53;4119938;28;20027;-72
2023/05/16 05:31:08;;;;;;;14.88;4.30;;;6.80;99.90;;;6.23;100.00;101986.94;4135171;28;20113;-72
2023/05/16 05:33:15;;;;;;;10.30;4.45;;;6.90;99.90;;;6.30;100.00;101980.34;4116437;28;20034;-72
2023/05/16 05:35:16;;;;;;;7.43;4.15;;;6.90;99.90;;;6.33;100.00;101976.69;4129234;28;20117;-73
2023/05/16 05:37:17;;;;;;;12.07;4.40;;;7.00;99.90;;;6.41;100.00;101980.50;4134820;28;20434;-73
2023/05/16 05:39:18;;;;;;;7.65;3.60;;;7.10;99.90;;;6.51;100.00;101989.44;4119069;28;20113;-72
2023/05/16 05:41:18;;;;;;;7.60;4.10;;;7.20;99.90;;;6.57;100.00;101990.84;4120036;28;20097;-72
2023/05/16 05:43:19;;;;;;;7.72;3.95;;;7.30;99.90;;;6.67;100.00;102000.63;4134638;28;20027;-72
2023/05/16 05:45:20;;;;;;;9.43;4.25;;;7.30;99.90;;;6.71;100.00;101990.78;4120024;28;20058;-72
2023/05/16 05:47:21;;;;;;;7.63;4.30;;;7.40;99.90;;;6.78;100.00;101999.91;4134989;28;20475;-72
2023/05/16 05:49:26;;;;;;;6.20;3.40;;;7.50;99.90;;;6.85;100.00;102002.97;4119792;28;20098;-73
2023/05/16 05:51:27;;;;;;;14.43;4.30;;;7.60;99.90;;;6.94;100.00;102005.81;4134780;28;20042;-71
2023/05/16 05:53:28;;;;;;;10.43;4.50;;;7.60;99.90;;;6.98;100.00;102009.94;4134531;28;20026;-71
2023/05/16 05:55:29;;;;;;;13.52;5.18;;;7.70;99.90;;;7.11;100.00;102020.44;4106702;28;20506;-71
2023/05/16 05:57:30;;;;;;;6.57;4.10;;;7.70;99.90;;;7.18;100.00;102024.34;4119807;28;20031;-72
2023/05/16 05:59:30;;;;;;;10.32;4.18;;;7.80;99.90;;;7.23;100.00;102020.47;4119737;28;20038;-72
2023/05/16 06:01:31;;;;;;;10.82;4.80;;;7.90;99.90;;;7.32;100.00;102019.00;4119458;28;20023;-71
2023/05/16 06:03:32;;;;;;;11.55;4.40;;;7.90;99.90;;;7.37;100.00;102019.53;4119829;28;20027;-71
2023/05/16 06:05:33;;;;;;;7.88;4.25;;;8.00;99.90;;;7.44;100.00;102022.56;4134600;28;20025;-72
2023/05/16 06:07:34;;;;;;;9.40;4.95;;;8.10;99.90;;;7.51;100.00;102024.69;4134677;28;20029;-71
2023/05/16 06:09:35;;;;;;;10.68;4.43;;;8.20;99.90;;;7.58;100.00;102031.19;4119776;28;20030;-71
2023/05/16 06:11:35;;;;;;;12.95;4.53;;;8.20;99.90;;;7.63;100.00;102026.47;4119830;28;20038;-71
2023/05/16 06:13:36;;;;;;;10.38;4.50;;;8.30;99.90;;;7.69;100.00;102033.94;4134425;28;20196;-71
2023/05/16 06:15:37;;;;;;;8.45;4.57;;;8.40;99.90;;;7.77;100.00;102028.13;4134551;28;20030;-72
2023/05/16 06:17:38;;;;;;;9.65;4.57;;;8.40;99.90;;;7.85;100.00;102038.13;4119664;28;20034;-72
2023/05/16 06:19:39;;;;;;;12.40;4.85;;;8.50;99.90;;;7.94;100.00;102042.72;4134560;28;20482;-72
2023/05/16 06:21:40;;;;;;;11.93;4.63;;;8.60;99.90;;;7.98;100.00;102037.13;4119879;28;20026;-71
2023/05/16 06:23:41;;;;;;;8.68;5.65;;;8.60;99.90;;;8.03;100.00;102036.84;4119688;28;20031;-72
2023/05/16 06:25:42;;;;;;;11.05;4.40;;;8.70;99.90;;;8.06;100.00;102032.19;4134493;28;20018;-72
2023/05/16 06:27:42;;;;;;;8.32;4.38;;;8.70;99.90;;;8.13;100.00;102040.47;4118183;28;20157;-71
2023/05/16 06:29:43;;;;;;;10.50;4.97;;;8.80;99.90;;;8.22;100.00;102035.41;4119251;28;20032;-72
2023/05/16 06:31:46;;;;;;;10.60;5.00;;;8.90;99.90;;;8.30;100.00;102040.16;4137781;28;20034;-72
2023/05/16 06:33:47;;;;;;;9.93;3.92;;;8.90;99.90;;;8.41;100.00;102042.00;4122712;28;20023;-72
2023/05/16 06:35:47;;;;;;;9.85;5.05;;;9.00;99.90;;;8.60;100.00;102040.56;4121420;28;20429;-71
2023/05/16 06:37:48;;;;;;;13.23;4.80;;;9.10;99.90;;;8.66;100.00;102048.00;4121375;28;20050;-72
2023/05/16 06:39:49;;;;;;;11.90;4.45;;;9.20;99.90;;;8.69;100.00;102050.41;4121526;28;20034;-72
2023/05/16 06:41:50;;;;;;;10.52;4.63;;;9.20;99.90;;;8.70;100.00;102052.09;4137515;28;20406;-72
2023/05/16 06:43:51;;;;;;;10.82;3.92;;;9.30;99.90;;;8.69;100.00;102041.72;4121000;28;20057;-72
2023/05/16 06:45:52;;;;;;;13.77;4.38;;;9.30;99.90;;;8.72;100.00;102046.75;4137191;28;20102;-72
2023/05/16 06:47:54;;;;;;;9.95;4.07;;;9.30;99.90;;;8.73;100.00;102051.88;4120981;28;20042;-72
2023/05/16 06:49:55;;;;;;;6.72;3.85;;;9.40;99.90;;;8.72;100.00;102046.75;4121364;28;20033;-72
2023/05/16 06:51:56;;;;;;;9.00;4.85;;;9.40;99.90;;;8.81;100.00;102053.97;4137362;28;20047;-72
2023/05/16 06:53:57;;;;;;;8.20;4.10;;;9.50;99.90;;;8.84;100.00;102051.09;4122629;28;20031;-72
2023/05/16 06:55:58;;;;;;;10.27;4.53;;;9.50;99.90;;;8.93;100.00;102062.75;4137370;28;20034;-72
2023/05/16 06:57:58;;;;;;;8.90;3.80;;;9.60;99.90;;;8.93;100.00;102054.84;4121980;28;20050;-72
2023/05/16 06:59:59;;;;;;;7.30;3.67;;;9.60;99.90;;;8.99;100.00;102059.66;4136834;28;20081;-71
2023/05/16 07:02:00;;;;;;;6.97;3.58;;;9.70;99.90;;;9.05;100.00;102065.28;4105189;28;20582;-72
2023/05/16 07:04:01;;;;;;;6.78;3.60;;;9.70;99.90;;;9.15;100.00;102070.72;4122412;28;20023;-72
2023/05/16 07:06:02;;;;;;;6.28;3.50;;;9.80;99.90;;;9.25;100.00;102066.44;4137158;28;20018;-72
2023/05/16 07:08:03;;;;;;;6.05;3.17;;;9.90;99.90;;;9.29;100.00;102062.59;4122135;28;20035;-72
2023/05/16 07:10:05;;;;;;;6.70;3.67;;;10.00;99.90;;;9.36;100.00;102063.84;4137197;28;20026;-72
2023/05/16 07:12:06;;;;;;;8.50;4.55;;;10.00;99.90;;;9.41;100.00;102067.78;4121018;28;20038;-72
2023/05/16 07:14:07;;;;;;;9.80;4.10;;;10.10;99.90;;;9.47;100.00;102071.75;4120815;28;20240;-72
2023/05/16 07:16:07;;;;;;;8.88;3.35;;;10.20;99.90;;;9.55;100.00;102065.91;4122076;28;20502;-72
2023/05/16 07:18:08;;;;;;;9.65;3.60;;;10.30;99.90;;;9.63;100.00;102066.16;4120801;28;20399;-72
2023/05/16 07:20:12;;;;;;;8.32;3.38;;;10.30;99.90;;;9.74;100.00;102072.28;4122182;28;20027;-72
2023/05/16 07:22:13;;;;;;;6.47;3.45;;;10.40;99.90;;;9.81;100.00;102070.88;4136755;28;20029;-72
2023/05/16 07:24:14;;;;;;;6.72;3.03;;;10.50;99.90;;;9.91;100.00;102077.09;4136883;28;20410;-71
2023/05/16 07:26:15;;;;;;;7.68;3.33;;;10.60;99.90;;;10.03;100.00;102078.75;4120615;28;20023;-72
2023/05/16 07:28:16;;;;;;;5.63;2.88;;;10.70;99.90;;;10.08;100.00;102080.22;4120808;28;20062;-72
2023/05/16 07:30:17;;;;;;;11.18;3.05;;;10.80;99.90;;;10.14;100.00;102063.94;4121998;28;20034;-72
2023/05/16 07:32:18;;;;;;;9.00;4.10;;;10.80;99.90;;;10.23;100.00;102074.59;4136827;28;20034;-72
2023/05/16 07:34:18;;;;;;;7.50;3.67;;;10.90;99.90;;;10.39;100.00;102074.25;4120473;28;20391;-72
2023/05/16 07:36:20;;;;;;;6.82;2.45;;;11.00;99.90;;;10.50;100.00;102079.47;4121855;28;20050;-72
2023/05/16 07:38:21;;;;;;;7.15;3.45;;;11.20;99.90;;;10.61;100.00;102076.81;4121739;28;20022;-72
2023/05/16 07:40:27;;;;;;;10.13;2.92;;;11.30;99.90;;;10.77;100.00;102084.34;4120254;28;20031;-71
2023/05/16 07:42:28;;;;;;;10.20;2.50;;;11.40;99.90;;;10.82;100.00;102083.00;4120244;28;20058;-72
2023/05/16 07:44:29;;;;;;;7.60;3.65;;;11.50;99.90;;;10.93;100.00;102093.50;4136346;28;20049;-72
2023/05/16 07:46:30;;;;;;;10.20;2.75;;;11.60;99.90;;;10.99;100.00;102093.00;4121713;28;20023;-72
2023/05/16 07:48:31;;;;;;;8.60;3.45;;;11.60;99.90;;;11.07;100.00;102092.41;4121817;28;20117;-72
2023/05/16 07:50:32;;;;;;;9.57;2.75;;;11.70;99.90;;;11.13;100.00;102094.53;4119455;28;20077;-72
2023/05/16 07:52:33;;;;;;;7.82;3.08;;;11.80;99.90;;;11.26;100.00;102091.72;4104409;28;20043;-72
2023/05/16 07:54:34;;;;;;;6.38;3.35;;;11.90;99.90;;;11.40;100.00;102094.03;4121511;28;20035;-72
2023/05/16 07:56:35;;;;;;;9.32;2.90;;;12.00;99.90;;;11.47;100.00;102085.47;4136457;28;20576;-72
2023/05/16 07:58:36;;;;;;;5.20;2.00;;;12.10;99.90;;;11.61;100.00;102090.44;4119921;28;20109;-71
2023/05/16 08:00:37;;;;;;;7.75;3.10;;;12.20;99.90;;;11.69;100.00;102087.13;4120315;28;20121;-72
2023/05/16 08:02:38;;;;;;;4.45;1.77;;;12.40;99.90;;;11.84;100.00;102082.38;4120291;28;20166;-72
2023/05/16 08:04:39;;;;;;;11.85;2.83;;;12.40;99.90;;;11.89;100.00;102086.28;4120203;28;20117;-72
2023/05/16 08:06:40;;;;;;;5.95;2.00;;;12.50;99.90;;;12.03;100.00;102096.53;4121377;28;20501;-72
2023/05/16 08:08:41;;;;;;;4.70;1.88;;;12.60;99.90;;;12.14;100.00;102096.44;4121486;28;20035;-73
2023/05/16 08:10:42;;;;;;;6.10;1.67;;;12.70;99.90;;;12.20;100.00;102092.41;4136295;28;20433;-72
2023/05/16 08:12:43;;;;;;;8.95;2.10;;;12.80;99.90;;;12.30;100.00;102092.47;4121064;28;20278;-72
2023/05/16 08:14:43;;;;;;;5.28;1.83;;;12.90;99.90;;;12.41;100.00;102097.66;4121024;28;20022;-72
2023/05/16 08:16:44;;;;;;;4.03;1.67;;;13.00;99.90;;;12.49;100.00;102096.00;4136181;28;20509;-72
2023/05/16 08:18:45;;;;;;;4.60;1.77;;;13.10;99.90;;;12.59;100.00;102090.72;4136144;28;20465;-72
2023/05/16 08:20:46;;;;;;;9.15;2.38;;;13.10;99.90;;;12.69;100.00;102084.47;4120195;28;20023;-72
2023/05/16 08:22:47;;;;;;;4.78;1.70;;;13.20;99.90;;;12.80;100.00;102082.69;4135841;28;20037;-72
2023/05/16 08:24:48;;;;;;;6.90;2.03;;;13.30;99.90;;;12.96;100.00;102080.34;4120954;28;20023;-72
2023/05/16 08:26:49;;;;;;;7.13;2.13;;;13.50;99.90;;;13.02;100.00;102079.78;4121329;28;20030;-72
2023/05/16 08:28:50;;;;;;;5.18;1.77;;;13.60;99.90;;;13.16;100.00;102076.72;4135259;28;20030;-72
2023/05/16 08:30:50;;;;;;;4.35;1.50;;;13.70;99.90;;;13.26;100.00;102073.09;4119595;28;20057;-72